Plamondon, Canada
Current Conditions -  °F | °C
As of 3:00 PM on Saturday 25 Oct 2014 (Local Time) from CYOD Reporting Station
Overcast Overcast  
Wind Chill: 37°   Ceiling: 15000
Heat Index: 41°   Visibility: 15mi
Dew Point: 28°   Wind: 6mph
Humidity: 61%   Direction: 100°E
Pressure: 29.92"   Gusts: NA
Location:  54.85°N, 112.34°W
Report Text: CYOD 252100Z 10005KT 15SM OVC150 05/M02 A2992 RMK AC7 SLP157
Loading
Personal Weather Stations






























Interactive Weather Map
Tropical Storm Tracking
New forecast layout! Learn more

10-Day Weather Forecast

Advertisements
Track Severe Weather on mobile